createdAt,value
2023-09-15T00:00:26.202Z,15.82
2023-09-15T00:03:18.255Z,15.80
2023-09-15T00:05:50.323Z,15.79
2023-09-15T00:08:22.879Z,15.80
2023-09-15T00:10:54.922Z,15.78
2023-09-15T00:13:26.925Z,15.78
2023-09-15T00:15:59.933Z,15.78
2023-09-15T00:18:32.007Z,15.77
2023-09-15T00:21:06.700Z,15.78
2023-09-15T00:23:39.704Z,15.80
2023-09-15T00:26:11.780Z,15.82
2023-09-15T00:28:44.352Z,15.83
2023-09-15T00:31:16.584Z,15.86
2023-09-15T00:33:48.739Z,15.86
2023-09-15T00:36:20.852Z,15.89
2023-09-15T00:38:53.127Z,15.86
2023-09-15T00:41:25.331Z,15.84
2023-09-15T00:43:57.312Z,15.85
2023-09-15T00:46:31.871Z,15.86
2023-09-15T00:49:04.787Z,15.87
2023-09-15T00:51:37.231Z,15.92
2023-09-15T00:54:10.226Z,15.90
2023-09-15T00:56:42.578Z,15.87
2023-09-15T00:59:15.275Z,15.84
2023-09-15T01:01:49.221Z,15.83
2023-09-15T01:04:22.304Z,15.83
2023-09-15T01:06:55.303Z,15.85
2023-09-15T01:09:28.380Z,15.85
2023-09-15T01:12:00.618Z,15.85
2023-09-15T01:14:32.919Z,15.85
2023-09-15T01:17:09.869Z,15.81
2023-09-15T01:19:56.909Z,15.83
2023-09-15T01:22:55.242Z,15.83
2023-09-15T01:25:56.716Z,15.80
2023-09-15T01:29:03.794Z,15.80
2023-09-15T01:31:36.897Z,15.80
2023-09-15T01:34:10.605Z,15.79
2023-09-15T01:36:42.760Z,15.76
2023-09-15T01:39:14.994Z,15.72
2023-09-15T01:41:48.189Z,15.68
2023-09-15T01:44:20.220Z,15.64
2023-09-15T01:46:52.166Z,15.67
2023-09-15T01:49:27.031Z,15.67
2023-09-15T01:51:59.782Z,15.64
2023-09-15T01:54:32.398Z,15.62
2023-09-15T01:57:04.731Z,15.60
2023-09-15T01:59:37.222Z,15.58
2023-09-15T02:02:09.415Z,15.56
2023-09-15T02:04:41.650Z,15.57
2023-09-15T02:07:14.020Z,15.56
2023-09-15T02:09:46.186Z,15.54
2023-09-15T02:12:18.229Z,15.52
2023-09-15T02:14:50.347Z,15.52
2023-09-15T02:17:22.515Z,15.52
2023-09-15T02:19:54.771Z,15.53
2023-09-15T02:22:27.014Z,15.53
2023-09-15T02:24:59.216Z,15.55
2023-09-15T02:27:32.568Z,15.54
2023-09-15T02:30:06.002Z,15.51
2023-09-15T02:32:38.584Z,15.49
2023-09-15T02:35:11.563Z,15.48
2023-09-15T02:37:43.541Z,15.50
2023-09-15T02:40:16.686Z,15.52
2023-09-15T02:42:48.746Z,15.48
2023-09-15T02:45:21.094Z,15.48
2023-09-15T02:47:54.533Z,15.47
2023-09-15T02:50:27.163Z,15.45
2023-09-15T02:53:00.098Z,15.43
2023-09-15T02:55:32.417Z,15.44
2023-09-15T02:58:05.275Z,15.46
2023-09-15T03:00:37.387Z,15.48
2023-09-15T03:03:09.977Z,15.51
2023-09-15T03:05:42.315Z,15.51
2023-09-15T03:08:15.853Z,15.53
2023-09-15T03:10:48.256Z,15.54
2023-09-15T03:13:20.365Z,15.52
2023-09-15T03:15:52.438Z,15.49
2023-09-15T03:18:25.474Z,15.49
2023-09-15T03:20:57.948Z,15.48
2023-09-15T03:23:30.022Z,15.48
2023-09-15T03:26:05.474Z,15.49
2023-09-15T03:28:40.833Z,15.49
2023-09-15T03:31:13.672Z,15.51
2023-09-15T03:33:46.030Z,15.55
2023-09-15T03:36:19.204Z,15.52
2023-09-15T03:38:51.835Z,15.50
2023-09-15T03:41:27.235Z,15.56
2023-09-15T03:44:00.590Z,15.58
2023-09-15T03:46:33.671Z,15.56
2023-09-15T03:49:06.207Z,15.55
2023-09-15T03:51:38.394Z,15.60
2023-09-15T03:54:10.764Z,15.61
2023-09-15T03:56:42.786Z,15.59
2023-09-15T03:59:15.406Z,15.66
2023-09-15T04:01:48.994Z,15.72
2023-09-15T04:04:21.281Z,15.80
2023-09-15T04:06:54.792Z,15.81
2023-09-15T04:09:26.860Z,15.79
2023-09-15T04:11:59.141Z,15.77
2023-09-15T04:14:35.697Z,15.77
2023-09-15T04:17:08.222Z,15.77
2023-09-15T04:19:40.455Z,15.69
2023-09-15T04:22:12.446Z,15.65
2023-09-15T04:24:44.549Z,15.58
2023-09-15T04:27:16.552Z,15.53
2023-09-15T04:29:56.683Z,15.40
2023-09-15T04:32:36.886Z,15.27
2023-09-15T04:35:10.741Z,15.22
2023-09-15T04:37:42.817Z,15.25
2023-09-15T04:40:15.686Z,15.22
2023-09-15T04:42:48.041Z,15.21
2023-09-15T04:45:20.393Z,15.21
2023-09-15T04:47:52.825Z,15.23
2023-09-15T04:50:27.246Z,15.20
2023-09-15T04:53:03.742Z,15.16
2023-09-15T04:55:36.579Z,15.15
2023-09-15T04:58:09.050Z,15.19
2023-09-15T05:00:42.234Z,15.22
2023-09-15T05:03:14.573Z,15.21
2023-09-15T05:05:52.269Z,15.18
2023-09-15T05:08:25.584Z,15.17
2023-09-15T05:10:57.558Z,15.14
2023-09-15T05:13:29.774Z,15.15
2023-09-15T05:16:04.418Z,15.20
2023-09-15T05:18:36.740Z,15.25
2023-09-15T05:21:08.797Z,15.31
2023-09-15T05:23:40.925Z,15.36
2023-09-15T05:26:13.136Z,15.38
2023-09-15T05:28:45.567Z,15.43
2023-09-15T05:31:19.228Z,15.48
2023-09-15T05:33:51.498Z,15.54
2023-09-15T05:36:24.272Z,15.60
2023-09-15T05:38:56.527Z,15.66
2023-09-15T05:41:28.543Z,15.72
2023-09-15T05:44:00.582Z,15.78
2023-09-15T05:46:32.695Z,15.84
2023-09-15T05:49:06.341Z,15.90
2023-09-15T05:51:38.576Z,15.96
2023-09-15T05:54:10.670Z,16.03
2023-09-15T05:56:42.865Z,16.11
2023-09-15T05:59:14.923Z,16.14
2023-09-15T06:01:49.045Z,16.20
2023-09-15T06:04:21.246Z,16.25
2023-09-15T06:06:53.540Z,16.32
2023-09-15T06:09:25.687Z,16.36
2023-09-15T06:11:57.704Z,16.44
2023-09-15T06:14:30.008Z,16.56
2023-09-15T06:17:04.076Z,16.65
2023-09-15T06:19:38.510Z,16.75
2023-09-15T06:22:11.137Z,16.80
2023-09-15T06:24:43.289Z,16.88
2023-09-15T06:27:15.305Z,16.94
2023-09-15T06:29:47.386Z,16.99
2023-09-15T06:32:19.473Z,17.06
2023-09-15T06:34:52.111Z,17.18
2023-09-15T06:37:24.316Z,17.31
2023-09-15T06:39:56.703Z,17.44
2023-09-15T06:42:28.803Z,17.56
2023-09-15T06:45:02.820Z,17.69
2023-09-15T06:47:34.957Z,17.81
2023-09-15T06:50:08.311Z,17.92
2023-09-15T06:52:41.090Z,18.03
2023-09-15T06:55:13.305Z,18.12
2023-09-15T06:57:45.457Z,18.20
2023-09-15T07:00:18.687Z,18.31
2023-09-15T07:02:50.924Z,18.49
2023-09-15T07:05:23.188Z,18.63
2023-09-15T07:07:55.372Z,18.70
2023-09-15T07:10:27.448Z,18.77
2023-09-15T07:12:59.863Z,18.87
2023-09-15T07:15:35.912Z,18.96
2023-09-15T07:18:07.254Z,19.06
2023-09-15T07:20:39.424Z,19.04
2023-09-15T07:23:12.060Z,19.11
2023-09-15T07:25:48.869Z,19.28
2023-09-15T07:28:21.556Z,19.45
2023-09-15T07:30:54.031Z,19.63
2023-09-15T07:33:26.667Z,19.85
2023-09-15T07:36:02.597Z,20.09
2023-09-15T07:38:35.117Z,20.27
2023-09-15T07:41:08.390Z,20.41
2023-09-15T07:43:41.451Z,20.55
2023-09-15T07:46:15.932Z,20.69
2023-09-15T07:48:48.377Z,20.83
2023-09-15T07:51:21.176Z,20.75
2023-09-15T07:53:54.001Z,20.75
2023-09-15T07:56:26.529Z,20.78
2023-09-15T07:58:59.069Z,20.82
2023-09-15T08:01:32.234Z,20.86
2023-09-15T08:04:04.398Z,20.89
2023-09-15T08:06:36.696Z,20.76
2023-09-15T08:09:10.301Z,20.69
2023-09-15T08:11:42.466Z,20.65
2023-09-15T08:14:14.517Z,20.68
2023-09-15T08:16:46.576Z,20.68
2023-09-15T08:19:18.994Z,20.63
2023-09-15T08:21:51.989Z,20.51
2023-09-15T08:24:24.053Z,20.36
2023-09-15T08:26:56.173Z,20.31
2023-09-15T08:29:28.440Z,20.29
2023-09-15T08:32:00.829Z,20.26
2023-09-15T08:34:32.834Z,20.18
2023-09-15T08:37:05.643Z,20.07
2023-09-15T08:39:38.538Z,20.00
2023-09-15T08:42:15.819Z,20.00
2023-09-15T08:44:48.331Z,20.01
2023-09-15T08:47:21.668Z,20.05
2023-09-15T08:49:55.190Z,20.13
2023-09-15T08:52:27.534Z,20.41
2023-09-15T08:55:01.194Z,20.66
2023-09-15T08:57:34.579Z,21.06
2023-09-15T09:00:10.386Z,21.19
2023-09-15T09:02:43.384Z,21.30
2023-09-15T09:05:15.774Z,21.23
2023-09-15T09:07:49.434Z,21.19
2023-09-15T09:10:23.617Z,21.16
2023-09-15T09:12:55.938Z,21.00
2023-09-15T09:15:30.130Z,20.94
2023-09-15T09:18:02.457Z,20.78
2023-09-15T09:20:34.638Z,20.67
2023-09-15T09:23:10.444Z,20.62
2023-09-15T09:25:42.853Z,20.58
2023-09-15T09:28:17.314Z,20.60
2023-09-15T09:30:55.055Z,20.68
2023-09-15T09:33:27.306Z,20.70
2023-09-15T09:35:59.479Z,20.73
2023-09-15T09:38:31.634Z,20.77
2023-09-15T09:41:05.230Z,20.67
2023-09-15T09:43:38.966Z,20.65
2023-09-15T09:46:12.590Z,20.70
2023-09-15T09:48:47.283Z,20.75
2023-09-15T09:51:20.752Z,20.78
2023-09-15T09:53:57.002Z,20.87
2023-09-15T09:56:29.139Z,20.98
2023-09-15T09:59:11.426Z,21.20
2023-09-15T10:01:44.434Z,21.67
2023-09-15T10:04:16.842Z,22.27
2023-09-15T10:06:49.135Z,22.73
2023-09-15T10:09:21.417Z,23.03
2023-09-15T10:11:54.927Z,23.20
2023-09-15T10:14:28.879Z,23.51
2023-09-15T10:17:02.631Z,23.51
2023-09-15T10:19:35.244Z,23.39
2023-09-15T10:22:08.328Z,23.30
2023-09-15T10:24:44.517Z,23.13
2023-09-15T10:27:16.913Z,23.02
2023-09-15T10:29:49.359Z,23.01
2023-09-15T10:32:22.379Z,23.02
2023-09-15T10:34:54.473Z,23.06
2023-09-15T10:37:28.089Z,22.98
2023-09-15T10:40:03.011Z,22.82
2023-09-15T10:42:48.309Z,22.80
2023-09-15T10:45:21.348Z,23.11
2023-09-15T10:48:02.884Z,23.51
2023-09-15T10:50:37.207Z,23.63
2023-09-15T10:53:17.148Z,23.56
2023-09-15T10:55:49.471Z,23.76
2023-09-15T10:58:21.646Z,24.41
2023-09-15T11:00:54.160Z,25.06
2023-09-15T11:03:28.371Z,25.80
2023-09-15T11:06:01.092Z,26.42
2023-09-15T11:08:33.969Z,26.85
2023-09-15T11:11:10.339Z,26.97
2023-09-15T11:13:43.248Z,26.85
2023-09-15T11:16:15.850Z,26.62
2023-09-15T11:18:49.718Z,26.35
2023-09-15T11:21:24.327Z,26.07
2023-09-15T11:23:57.900Z,25.86
2023-09-15T11:26:30.823Z,25.66
2023-09-15T11:29:02.798Z,25.83
2023-09-15T11:31:37.626Z,25.74
2023-09-15T11:34:10.937Z,26.03
2023-09-15T11:36:44.023Z,26.45
2023-09-15T11:39:17.181Z,26.27
2023-09-15T11:41:54.992Z,25.77
2023-09-15T11:44:31.068Z,25.52
2023-09-15T11:47:05.288Z,25.53
2023-09-15T11:49:38.060Z,25.55
2023-09-15T11:52:11.201Z,25.48
2023-09-15T11:54:47.052Z,25.47
2023-09-15T11:57:21.836Z,25.37
2023-09-15T11:59:54.395Z,25.29
2023-09-15T12:02:26.690Z,25.43
2023-09-15T12:04:59.432Z,25.67
2023-09-15T12:07:31.691Z,25.69
2023-09-15T12:10:03.931Z,25.42
2023-09-15T12:12:36.233Z,25.18
2023-09-15T12:15:09.786Z,24.99
2023-09-15T12:17:46.368Z,24.83
2023-09-15T12:20:18.363Z,24.60
2023-09-15T12:22:50.410Z,24.41
2023-09-15T12:25:22.902Z,24.22
2023-09-15T12:27:56.155Z,24.12
2023-09-15T12:30:28.540Z,24.04
2023-09-15T12:33:00.733Z,24.08
2023-09-15T12:35:39.419Z,25.53
2023-09-15T12:38:14.308Z,26.80
2023-09-15T12:40:46.432Z,26.93
2023-09-15T12:43:18.850Z,26.82
2023-09-15T12:45:51.148Z,27.17
2023-09-15T12:48:23.648Z,26.92
2023-09-15T12:50:56.010Z,26.52
2023-09-15T12:53:28.351Z,26.20
2023-09-15T12:56:01.554Z,25.97
2023-09-15T12:58:33.621Z,25.74
2023-09-15T13:01:05.768Z,25.53
2023-09-15T13:03:37.905Z,25.36
2023-09-15T13:06:10.407Z,25.28
2023-09-15T13:08:42.611Z,25.10
2023-09-15T13:11:14.889Z,25.06
2023-09-15T13:13:47.218Z,25.16
2023-09-15T13:16:19.895Z,25.18
2023-09-15T13:18:52.006Z,25.43
2023-09-15T13:21:24.160Z,26.62
2023-09-15T13:23:56.308Z,29.27
2023-09-15T13:26:28.546Z,31.03
2023-09-15T13:29:01.098Z,32.56
2023-09-15T13:31:33.262Z,34.27
2023-09-15T13:34:05.458Z,34.68
2023-09-15T13:36:38.403Z,36.23
2023-09-15T13:39:10.935Z,37.00
2023-09-15T13:41:43.494Z,37.77
2023-09-15T13:44:16.203Z,38.85
2023-09-15T13:46:48.257Z,38.43
2023-09-15T13:49:20.445Z,36.71
2023-09-15T13:51:52.432Z,35.62
2023-09-15T13:54:24.479Z,34.56
2023-09-15T13:56:56.535Z,33.53
2023-09-15T13:59:28.865Z,32.66
2023-09-15T14:02:01.604Z,31.86
2023-09-15T14:04:34.056Z,31.14
2023-09-15T14:07:08.063Z,30.75
2023-09-15T14:09:40.453Z,32.30
2023-09-15T14:12:13.579Z,34.01
2023-09-15T14:14:45.787Z,35.56
2023-09-15T14:17:18.134Z,36.65
2023-09-15T14:19:50.528Z,37.68
2023-09-15T14:22:28.419Z,38.22
2023-09-15T14:25:00.845Z,38.73
2023-09-15T14:27:32.903Z,39.28
2023-09-15T14:30:05.562Z,39.85
2023-09-15T14:32:38.254Z,40.54
2023-09-15T14:35:11.020Z,40.67
2023-09-15T14:37:43.257Z,40.88
2023-09-15T14:40:15.398Z,41.15
2023-09-15T14:42:47.532Z,41.29
2023-09-15T14:45:19.658Z,41.30
2023-09-15T14:47:51.681Z,41.37
2023-09-15T14:50:24.337Z,41.52
2023-09-15T14:52:56.514Z,41.43
2023-09-15T14:55:28.560Z,41.54
2023-09-15T14:58:00.681Z,41.79
2023-09-15T15:00:33.857Z,41.60
2023-09-15T15:03:07.267Z,41.58
2023-09-15T15:05:39.802Z,41.53
2023-09-15T15:08:12.325Z,41.29
2023-09-15T15:10:44.521Z,41.32
2023-09-15T15:13:16.860Z,40.76
2023-09-15T15:15:50.219Z,38.95
2023-09-15T15:18:23.477Z,37.04
2023-09-15T15:20:55.571Z,35.57
2023-09-15T15:23:28.047Z,34.21
2023-09-15T15:26:06.151Z,32.84
2023-09-15T15:28:38.584Z,31.70
2023-09-15T15:31:15.994Z,30.63
2023-09-15T15:33:48.151Z,29.72
2023-09-15T15:36:21.646Z,29.02
2023-09-15T15:38:53.717Z,28.26
2023-09-15T15:41:25.990Z,27.58
2023-09-15T15:43:57.966Z,27.07
2023-09-15T15:46:29.959Z,26.64
2023-09-15T15:49:03.634Z,26.22
2023-09-15T15:51:36.747Z,25.81
2023-09-15T15:54:09.486Z,25.44
2023-09-15T15:56:42.487Z,25.01
2023-09-15T15:59:14.520Z,24.66
2023-09-15T16:01:47.008Z,24.33
2023-09-15T16:04:19.242Z,24.01
2023-09-15T16:06:51.211Z,23.75
2023-09-15T16:09:23.292Z,23.55
2023-09-15T16:11:55.746Z,23.36
2023-09-15T16:14:28.052Z,23.14
2023-09-15T16:17:00.128Z,22.95
2023-09-15T16:19:32.343Z,22.77
2023-09-15T16:22:07.075Z,22.60
2023-09-15T16:24:39.103Z,22.42
2023-09-15T16:27:11.336Z,22.25
2023-09-15T16:29:43.472Z,22.09
2023-09-15T16:32:15.647Z,21.91
2023-09-15T16:34:47.670Z,21.77
2023-09-15T16:37:19.768Z,21.61
2023-09-15T16:39:53.108Z,21.46
2023-09-15T16:42:25.248Z,21.30
2023-09-15T16:44:57.393Z,21.15
2023-09-15T16:47:30.984Z,20.99
2023-09-15T16:50:05.861Z,20.84
2023-09-15T16:52:38.173Z,20.72
2023-09-15T16:55:11.799Z,20.60
2023-09-15T16:57:43.998Z,20.45
2023-09-15T17:00:18.112Z,20.34
2023-09-15T17:02:50.764Z,20.22
2023-09-15T17:05:23.138Z,20.09
2023-09-15T17:07:56.132Z,20.00
2023-09-15T17:10:29.709Z,19.89
2023-09-15T17:13:01.782Z,19.78
2023-09-15T17:15:34.558Z,19.69
2023-09-15T17:18:07.488Z,19.59
2023-09-15T17:20:41.705Z,19.45
2023-09-15T17:23:14.042Z,19.34
2023-09-15T17:25:46.636Z,19.23
2023-09-15T17:28:19.618Z,19.11
2023-09-15T17:30:51.810Z,19.00
2023-09-15T17:33:25.445Z,18.92
2023-09-15T17:35:58.660Z,18.82
2023-09-15T17:38:33.366Z,18.73
2023-09-15T17:41:10.114Z,18.65
2023-09-15T17:43:42.493Z,18.54
2023-09-15T17:46:15.018Z,18.43
2023-09-15T17:48:49.061Z,18.34
2023-09-15T17:51:22.640Z,18.22
2023-09-15T17:53:54.909Z,18.14
2023-09-15T17:56:27.394Z,18.08
2023-09-15T17:58:59.412Z,17.95
2023-09-15T18:01:31.935Z,17.82
2023-09-15T18:04:04.366Z,17.71
2023-09-15T18:06:36.873Z,17.62
2023-09-15T18:09:09.267Z,17.49
2023-09-15T18:11:41.916Z,17.40
2023-09-15T18:14:17.867Z,17.31
2023-09-15T18:16:53.165Z,17.21
2023-09-15T18:19:26.168Z,17.13
2023-09-15T18:21:59.161Z,17.06
2023-09-15T18:24:34.188Z,16.97
2023-09-15T18:27:10.868Z,16.86
2023-09-15T18:29:43.953Z,16.79
2023-09-15T18:32:17.348Z,16.71
2023-09-15T18:34:52.131Z,16.64
2023-09-15T18:37:25.414Z,16.58
2023-09-15T18:40:01.730Z,16.56
2023-09-15T18:42:35.145Z,16.54
2023-09-15T18:45:10.272Z,16.47
2023-09-15T18:47:44.310Z,16.44
2023-09-15T18:50:19.859Z,16.41
2023-09-15T18:52:56.080Z,16.36
2023-09-15T18:55:31.242Z,16.33
2023-09-15T18:58:08.905Z,16.28
2023-09-15T19:00:44.519Z,16.21
2023-09-15T19:03:19.129Z,16.17
2023-09-15T19:05:52.636Z,16.14
2023-09-15T19:08:27.416Z,16.10
2023-09-15T19:11:06.970Z,16.03
2023-09-15T19:13:43.309Z,16.03
2023-09-15T19:16:23.223Z,16.02
2023-09-15T19:18:59.519Z,16.00
2023-09-15T19:21:32.381Z,15.96
2023-09-15T19:24:10.660Z,15.84
2023-09-15T19:26:50.075Z,15.79
2023-09-15T19:29:30.664Z,15.80
2023-09-15T19:32:04.253Z,15.77
2023-09-15T19:34:36.834Z,15.75
2023-09-15T19:37:09.104Z,15.72
2023-09-15T19:39:44.342Z,15.69
2023-09-15T19:42:19.134Z,15.63
2023-09-15T19:44:55.244Z,15.60
2023-09-15T19:47:36.136Z,15.58
2023-09-15T19:50:11.159Z,15.52
2023-09-15T19:52:46.552Z,15.46
2023-09-15T19:55:20.709Z,15.41
2023-09-15T19:57:56.944Z,15.33
2023-09-15T20:00:31.637Z,15.26
2023-09-15T20:03:08.173Z,15.20
2023-09-15T20:05:48.899Z,15.13
2023-09-15T20:08:26.709Z,15.05
2023-09-15T20:11:00.833Z,15.01
2023-09-15T20:13:39.227Z,14.95
2023-09-15T20:16:20.409Z,14.88
2023-09-15T20:18:55.907Z,14.85
2023-09-15T20:21:33.233Z,14.85
2023-09-15T20:24:07.809Z,14.83
2023-09-15T20:26:44.380Z,14.82
2023-09-15T20:29:17.189Z,14.83
2023-09-15T20:31:50.405Z,14.82
2023-09-15T20:34:24.843Z,14.80
2023-09-15T20:37:00.532Z,14.82
2023-09-15T20:39:33.051Z,14.82
2023-09-15T20:42:10.695Z,14.81
2023-09-15T20:44:48.339Z,14.79
2023-09-15T20:47:21.742Z,14.78
2023-09-15T20:49:53.998Z,14.78
2023-09-15T20:52:26.254Z,14.79
2023-09-15T20:55:01.131Z,14.79
2023-09-15T20:57:36.275Z,14.78
2023-09-15T21:00:13.335Z,14.77
2023-09-15T21:02:46.121Z,14.75
2023-09-15T21:05:20.205Z,14.73
2023-09-15T21:07:53.957Z,14.71
2023-09-15T21:10:26.201Z,14.67
2023-09-15T21:12:58.619Z,14.63
2023-09-15T21:15:32.369Z,14.58
2023-09-15T21:18:05.480Z,14.52
2023-09-15T21:20:37.531Z,14.47
2023-09-15T21:23:09.975Z,14.42
2023-09-15T21:25:46.113Z,14.38
2023-09-15T21:28:18.860Z,14.32
2023-09-15T21:30:50.902Z,14.27
2023-09-15T21:33:23.341Z,14.21
2023-09-15T21:35:56.236Z,14.12
2023-09-15T21:38:28.759Z,13.98
2023-09-15T21:41:00.977Z,13.87
2023-09-15T21:43:35.838Z,13.79
2023-09-15T21:46:08.142Z,13.71
2023-09-15T21:48:41.523Z,13.66
2023-09-15T21:51:13.902Z,13.60
2023-09-15T21:53:45.941Z,13.54
2023-09-15T21:56:18.259Z,13.45
2023-09-15T21:58:50.816Z,13.41
2023-09-15T22:01:23.987Z,13.35
2023-09-15T22:03:56.406Z,13.31
2023-09-15T22:06:28.811Z,13.28
2023-09-15T22:09:00.953Z,13.25
2023-09-15T22:11:33.122Z,13.26
2023-09-15T22:14:05.700Z,13.26
2023-09-15T22:16:37.883Z,13.24
2023-09-15T22:19:12.862Z,13.18
2023-09-15T22:21:45.629Z,13.10
2023-09-15T22:24:17.883Z,13.05
2023-09-15T22:26:49.851Z,13.03
2023-09-15T22:29:22.018Z,12.99
2023-09-15T22:31:54.021Z,12.93
2023-09-15T22:34:26.203Z,12.87
2023-09-15T22:36:58.835Z,12.80
2023-09-15T22:39:31.278Z,12.72
2023-09-15T22:42:05.952Z,12.71
2023-09-15T22:44:38.976Z,12.64
2023-09-15T22:47:13.075Z,12.59
2023-09-15T22:49:45.427Z,12.57
2023-09-15T22:52:17.542Z,12.55
2023-09-15T22:54:49.821Z,12.54
2023-09-15T22:57:22.148Z,12.51
2023-09-15T22:59:54.661Z,12.48
2023-09-15T23:02:27.610Z,12.50
2023-09-15T23:05:00.343Z,12.55
2023-09-15T23:07:33.959Z,12.57
2023-09-15T23:10:07.485Z,12.57
2023-09-15T23:12:40.325Z,12.61
2023-09-15T23:15:13.732Z,12.65
2023-09-15T23:17:45.979Z,12.66
2023-09-15T23:20:18.340Z,12.67
2023-09-15T23:22:50.721Z,12.67
2023-09-15T23:25:22.690Z,12.68
2023-09-15T23:27:56.559Z,12.63
2023-09-15T23:30:29.424Z,12.60
2023-09-15T23:33:01.608Z,12.55
2023-09-15T23:35:33.738Z,12.50
2023-09-15T23:38:05.901Z,12.43
2023-09-15T23:40:37.868Z,12.38
2023-09-15T23:43:10.806Z,12.37
2023-09-15T23:45:43.098Z,12.33
2023-09-15T23:48:15.242Z,12.26
2023-09-15T23:50:47.826Z,12.19
2023-09-15T23:53:19.990Z,12.13
2023-09-15T23:55:53.568Z,12.06
2023-09-15T23:58:25.689Z,12.02
